createdAt,value
2018-12-11T00:00:42.760Z,8.03
2018-12-11T00:03:12.069Z,3.23
2018-12-11T00:05:40.357Z,6.20
2018-12-11T00:08:08.642Z,3.70
2018-12-11T00:10:36.906Z,3.47
2018-12-11T00:13:05.217Z,3.10
2018-12-11T00:15:34.067Z,3.83
2018-12-11T00:18:02.364Z,4.77
2018-12-11T00:20:30.645Z,2.47
2018-12-11T00:22:58.937Z,3.10
2018-12-11T00:25:27.344Z,4.07
2018-12-11T00:27:55.669Z,2.00
2018-12-11T00:30:24.780Z,3.80
2018-12-11T00:32:53.050Z,3.83
2018-12-11T00:35:22.287Z,3.77
2018-12-11T00:37:50.678Z,3.03
2018-12-11T00:40:20.058Z,5.70
2018-12-11T00:42:48.436Z,3.40
2018-12-11T00:45:16.744Z,2.83
2018-12-11T00:47:45.023Z,4.30
2018-12-11T00:50:13.332Z,3.93
2018-12-11T00:52:41.611Z,3.80
2018-12-11T00:55:09.919Z,2.87
2018-12-11T00:57:38.218Z,6.53
2018-12-11T01:00:07.863Z,2.37
2018-12-11T01:02:36.204Z,2.40
2018-12-11T01:05:05.059Z,2.67
2018-12-11T01:07:33.357Z,3.97
2018-12-11T01:10:02.897Z,3.53
2018-12-11T01:12:31.179Z,4.13
2018-12-11T01:14:59.467Z,3.50
2018-12-11T01:17:28.720Z,2.80
2018-12-11T01:19:57.010Z,4.40
2018-12-11T01:22:25.983Z,2.53
2018-12-11T01:24:54.281Z,4.07
2018-12-11T01:27:22.584Z,2.73
2018-12-11T01:29:50.867Z,2.40
2018-12-11T01:32:19.238Z,4.63
2018-12-11T01:34:48.542Z,3.10
2018-12-11T01:37:17.047Z,2.17
2018-12-11T01:39:45.452Z,3.10
2018-12-11T01:42:13.718Z,3.90
2018-12-11T01:44:42.023Z,2.93
2018-12-11T01:47:10.345Z,3.13
2018-12-11T01:49:39.679Z,2.67
2018-12-11T01:52:07.968Z,7.43
2018-12-11T01:54:36.267Z,3.80
2018-12-11T01:57:04.553Z,4.83
2018-12-11T01:59:32.867Z,4.50
2018-12-11T02:02:01.127Z,3.97
2018-12-11T02:04:29.536Z,3.03
2018-12-11T02:06:59.150Z,3.27
2018-12-11T02:09:27.446Z,2.70
2018-12-11T02:11:56.755Z,3.37
2018-12-11T02:14:25.006Z,1.97
2018-12-11T02:16:53.582Z,2.47
2018-12-11T02:19:22.931Z,2.57
2018-12-11T02:21:51.653Z,1.80
2018-12-11T02:24:19.959Z,2.63
2018-12-11T02:26:48.257Z,3.30
2018-12-11T02:29:16.564Z,2.33
2018-12-11T02:31:44.858Z,5.10
2018-12-11T02:34:14.170Z,4.43
2018-12-11T02:36:43.389Z,2.83
2018-12-11T02:39:11.701Z,3.07
2018-12-11T02:41:39.974Z,2.10
2018-12-11T02:44:08.394Z,2.90
2018-12-11T02:46:36.689Z,2.10
2018-12-11T02:49:06.000Z,2.10
2018-12-11T02:51:34.280Z,4.10
2018-12-11T02:54:02.602Z,2.30
2018-12-11T02:56:30.907Z,2.53
2018-12-11T02:58:59.286Z,2.20
2018-12-11T03:01:27.590Z,2.97
2018-12-11T03:03:56.419Z,2.43
2018-12-11T03:06:24.764Z,3.37
2018-12-11T03:08:53.032Z,2.90
2018-12-11T03:11:21.378Z,4.60
2018-12-11T03:13:49.699Z,3.27
2018-12-11T03:16:18.041Z,2.20
2018-12-11T03:18:46.323Z,2.90
2018-12-11T03:21:15.606Z,2.00
2018-12-11T03:23:43.833Z,2.40
2018-12-11T03:26:12.143Z,3.67
2018-12-11T03:28:40.433Z,3.37
2018-12-11T03:31:08.734Z,2.47
2018-12-11T03:33:38.019Z,3.10
2018-12-11T03:36:06.326Z,2.00
2018-12-11T03:38:34.912Z,2.63
2018-12-11T03:41:04.347Z,3.07
2018-12-11T03:43:32.641Z,2.87
2018-12-11T03:46:01.037Z,2.10
2018-12-11T03:48:29.311Z,2.20
2018-12-11T03:50:58.699Z,1.90
2018-12-11T03:53:27.008Z,2.10
2018-12-11T03:55:55.305Z,3.27
2018-12-11T03:58:23.681Z,3.27
2018-12-11T04:00:52.156Z,2.27
2018-12-11T04:03:20.463Z,2.40
2018-12-11T04:05:48.788Z,2.17
2018-12-11T04:08:17.119Z,2.90
2018-12-11T04:10:45.410Z,1.70
2018-12-11T04:13:13.791Z,2.50
2018-12-11T04:15:42.166Z,1.90
2018-12-11T04:18:10.535Z,3.47
2018-12-11T04:20:39.636Z,7.67
2018-12-11T04:23:07.952Z,3.27
2018-12-11T04:25:36.369Z,25.33
2018-12-11T04:28:04.678Z,170.17
2018-12-11T04:30:33.011Z,285.03
2018-12-11T04:33:01.377Z,334.50
2018-12-11T04:35:29.704Z,258.53
2018-12-11T04:37:58.038Z,291.47
2018-12-11T04:40:26.804Z,301.87
2018-12-11T04:42:55.105Z,283.80
2018-12-11T04:45:23.456Z,276.37
2018-12-11T04:47:51.779Z,244.13
2018-12-11T04:50:21.133Z,249.17
2018-12-11T04:52:49.464Z,241.17
2018-12-11T04:55:17.794Z,227.83
2018-12-11T04:57:46.135Z,244.97
2018-12-11T05:00:15.738Z,231.30
2018-12-11T05:02:44.083Z,203.93
2018-12-11T05:05:12.404Z,210.37
2018-12-11T05:07:40.743Z,245.57
2018-12-11T05:10:09.173Z,241.60
2018-12-11T05:12:38.466Z,182.67
2018-12-11T05:15:07.303Z,184.40
2018-12-11T05:17:35.670Z,187.10
2018-12-11T05:20:04.560Z,190.10
2018-12-11T05:22:32.993Z,148.80
2018-12-11T05:25:01.992Z,176.83
2018-12-11T05:27:30.291Z,160.07
2018-12-11T05:29:58.643Z,157.43
2018-12-11T05:32:26.951Z,141.80
2018-12-11T05:34:55.295Z,133.40
2018-12-11T05:37:24.368Z,141.30
2018-12-11T05:39:52.682Z,103.53
2018-12-11T05:42:22.019Z,115.67
2018-12-11T05:44:50.363Z,121.90
2018-12-11T05:47:18.679Z,117.20
2018-12-11T05:49:47.023Z,129.00
2018-12-11T05:52:15.333Z,118.00
2018-12-11T05:54:44.935Z,114.60
2018-12-11T05:57:13.244Z,101.13
2018-12-11T05:59:41.585Z,106.97
2018-12-11T06:02:09.991Z,105.60
2018-12-11T06:04:38.337Z,93.77
2018-12-11T06:07:07.660Z,93.17
2018-12-11T06:09:35.984Z,95.77
2018-12-11T06:12:04.399Z,101.93
2018-12-11T06:14:32.749Z,86.57
2018-12-11T06:17:01.056Z,63.63
2018-12-11T06:19:29.932Z,86.30
2018-12-11T06:21:58.231Z,89.23
2018-12-11T06:24:26.574Z,75.10
2018-12-11T06:26:54.879Z,77.47
2018-12-11T06:29:24.648Z,61.33
2018-12-11T06:31:54.096Z,80.67
2018-12-11T06:34:22.431Z,63.10
2018-12-11T06:36:50.745Z,60.10
2018-12-11T06:39:20.114Z,68.30
2018-12-11T06:41:48.419Z,64.90
2018-12-11T06:44:18.296Z,70.90
2018-12-11T06:46:46.615Z,52.37
2018-12-11T06:49:14.894Z,57.80
2018-12-11T06:51:43.208Z,51.33
2018-12-11T06:54:11.644Z,65.17
2018-12-11T06:56:39.953Z,62.20
2018-12-11T06:59:09.321Z,52.53
2018-12-11T07:01:37.624Z,58.63
2018-12-11T07:04:05.973Z,45.00
2018-12-11T07:06:34.270Z,47.63
2018-12-11T07:09:02.830Z,53.80
2018-12-11T07:11:32.127Z,42.00
2018-12-11T07:14:00.528Z,48.73
2018-12-11T07:16:29.247Z,45.03
2018-12-11T07:19:00.596Z,44.03
2018-12-11T07:21:29.618Z,38.17
2018-12-11T07:23:57.928Z,48.13
2018-12-11T07:26:27.282Z,47.77
2018-12-11T07:28:55.943Z,36.67
2018-12-11T07:31:25.320Z,43.60
2018-12-11T07:33:54.168Z,34.13
2018-12-11T07:36:22.497Z,39.73
2018-12-11T07:38:50.845Z,42.17
2018-12-11T07:41:19.159Z,39.77
2018-12-11T07:43:47.478Z,35.00
2018-12-11T07:46:15.993Z,35.83
2018-12-11T07:48:44.304Z,33.00
2018-12-11T07:51:12.736Z,33.53
2018-12-11T07:53:41.059Z,27.27
2018-12-11T07:56:09.371Z,22.23
2018-12-11T07:58:37.699Z,34.40
2018-12-11T08:01:06.055Z,29.67
2018-12-11T08:03:34.387Z,24.57
2018-12-11T08:06:02.682Z,31.93
2018-12-11T08:08:31.045Z,25.77
2018-12-11T08:11:00.919Z,41.33
2018-12-11T08:13:29.264Z,35.43
2018-12-11T08:15:57.570Z,23.77
2018-12-11T08:18:26.012Z,24.13
2018-12-11T08:20:55.311Z,24.50
2018-12-11T08:23:23.622Z,25.03
2018-12-11T08:25:53.037Z,24.57
2018-12-11T08:28:22.399Z,22.97
2018-12-11T08:30:50.800Z,22.60
2018-12-11T08:33:19.135Z,24.13
2018-12-11T08:35:47.424Z,21.03
2018-12-11T08:38:15.767Z,20.80
2018-12-11T08:40:44.051Z,26.67
2018-12-11T08:44:22.835Z,20.77
2018-12-11T08:46:51.175Z,24.27
2018-12-11T08:49:19.487Z,21.87
2018-12-11T08:51:48.364Z,21.23
2018-12-11T08:54:16.855Z,21.47
2018-12-11T08:56:45.200Z,21.40
2018-12-11T08:59:13.587Z,18.03
2018-12-11T09:01:41.884Z,17.67
2018-12-11T09:04:10.314Z,19.93
2018-12-11T09:06:38.629Z,18.67
2018-12-11T09:09:07.426Z,19.67
2018-12-11T09:11:36.927Z,21.47
2018-12-11T09:14:05.284Z,19.33
2018-12-11T09:16:34.262Z,14.67
2018-12-11T09:19:02.657Z,18.83
2018-12-11T09:21:30.896Z,19.00
2018-12-11T09:23:59.240Z,16.70
2018-12-11T09:26:28.527Z,18.97
2018-12-11T09:28:56.850Z,14.30
2018-12-11T09:31:25.195Z,15.90
2018-12-11T09:33:53.473Z,14.87
2018-12-11T09:36:21.766Z,15.73
2018-12-11T09:38:50.087Z,19.23
2018-12-11T09:41:18.511Z,15.70
2018-12-11T09:43:46.834Z,13.00
2018-12-11T09:46:15.134Z,20.07
2018-12-11T09:48:43.485Z,15.77
2018-12-11T09:51:17.648Z,11.17
2018-12-11T09:53:42.117Z,15.87
2018-12-11T09:56:10.467Z,16.93
2018-12-11T09:58:38.852Z,15.00
2018-12-11T10:01:07.186Z,14.97
2018-12-11T10:03:35.528Z,10.17
2018-12-11T10:06:03.906Z,13.40
2018-12-11T10:08:32.279Z,12.63
2018-12-11T10:11:00.616Z,15.77
2018-12-11T10:13:28.964Z,11.67
2018-12-11T10:15:57.314Z,15.63
2018-12-11T10:18:25.681Z,15.40
2018-12-11T10:20:55.061Z,12.90
2018-12-11T10:23:24.096Z,11.00
2018-12-11T10:25:53.462Z,12.70
2018-12-11T10:28:21.737Z,14.07
2018-12-11T10:30:50.399Z,11.53
2018-12-11T10:33:18.756Z,13.90
2018-12-11T10:35:47.498Z,11.10
2018-12-11T10:38:15.815Z,10.40
2018-12-11T10:40:44.196Z,10.97
2018-12-11T10:43:12.487Z,10.43
2018-12-11T10:45:41.413Z,10.47
2018-12-11T10:48:09.765Z,12.80
2018-12-11T10:50:39.103Z,9.60
2018-12-11T10:53:08.451Z,10.67
2018-12-11T10:55:37.183Z,14.00
2018-12-11T10:58:05.494Z,12.17
2018-12-11T11:00:39.136Z,9.97
2018-12-11T11:03:08.029Z,9.30
2018-12-11T11:05:38.395Z,9.57
2018-12-11T11:08:06.764Z,14.47
2018-12-11T11:10:36.110Z,8.27
2018-12-11T11:13:04.657Z,8.63
2018-12-11T11:15:34.050Z,10.30
2018-12-11T11:18:02.441Z,12.37
2018-12-11T11:20:30.765Z,16.83
2018-12-11T11:22:59.069Z,7.73
2018-12-11T11:25:27.476Z,9.80
2018-12-11T11:27:55.802Z,7.70
2018-12-11T11:30:24.200Z,8.93
2018-12-11T11:32:52.620Z,9.00
2018-12-11T11:35:20.934Z,9.87
2018-12-11T11:37:49.251Z,7.23
2018-12-11T11:40:18.687Z,12.20
2018-12-11T11:42:46.999Z,8.73
2018-12-11T11:45:15.331Z,7.63
2018-12-11T11:47:44.630Z,9.97
2018-12-11T11:50:15.876Z,9.57
2018-12-11T11:52:44.188Z,10.60
2018-12-11T11:55:12.503Z,9.70
2018-12-11T11:57:41.867Z,6.00
2018-12-11T12:00:12.932Z,7.33
2018-12-11T12:02:42.242Z,8.10
2018-12-11T12:05:10.647Z,7.80
2018-12-11T12:07:38.996Z,6.80
2018-12-11T12:10:10.131Z,7.20
2018-12-11T12:12:38.649Z,9.33
2018-12-11T12:15:08.382Z,9.07
2018-12-11T12:17:36.650Z,6.57
2018-12-11T12:20:07.199Z,7.47
2018-12-11T12:22:36.567Z,6.03
2018-12-11T12:25:06.996Z,6.43
2018-12-11T12:27:35.302Z,8.20
2018-12-11T12:30:04.901Z,7.10
2018-12-11T12:32:33.227Z,4.53
2018-12-11T12:35:01.532Z,5.20
2018-12-11T12:37:29.847Z,7.03
2018-12-11T12:39:58.187Z,7.27
2018-12-11T12:42:26.500Z,5.60
2018-12-11T12:44:55.216Z,8.30
2018-12-11T12:47:23.508Z,6.30
2018-12-11T12:49:52.866Z,5.30
2018-12-11T12:52:21.168Z,10.43
2018-12-11T12:54:49.490Z,4.37
2018-12-11T12:57:17.803Z,6.43
2018-12-11T12:59:47.152Z,3.93
2018-12-11T13:02:15.447Z,6.30
2018-12-11T13:04:43.776Z,4.57
2018-12-11T13:07:12.054Z,7.20
2018-12-11T13:09:41.343Z,5.37
2018-12-11T13:12:09.651Z,6.87
2018-12-11T13:14:38.021Z,7.77
2018-12-11T13:17:06.429Z,4.10
2018-12-11T13:19:34.731Z,7.73
2018-12-11T13:22:03.032Z,5.03
2018-12-11T13:24:31.359Z,5.97
2018-12-11T13:26:59.768Z,6.27
2018-12-11T13:29:28.068Z,5.20
2018-12-11T13:31:56.451Z,5.70
2018-12-11T13:34:24.963Z,5.30
2018-12-11T13:36:53.287Z,5.30
2018-12-11T13:39:21.644Z,5.27
2018-12-11T13:41:51.060Z,6.03
2018-12-11T13:44:19.597Z,5.00
2018-12-11T13:46:48.195Z,5.93
2018-12-11T13:49:16.529Z,3.63
2018-12-11T13:51:44.834Z,4.10
2018-12-11T13:54:13.347Z,4.70
2018-12-11T13:56:41.657Z,6.53
2018-12-11T13:59:10.002Z,3.50
2018-12-11T14:01:39.331Z,4.50
2018-12-11T14:04:07.655Z,3.43
2018-12-11T14:06:37.030Z,8.30
2018-12-11T14:09:12.679Z,4.60
2018-12-11T14:11:41.368Z,4.53
2018-12-11T14:14:09.704Z,4.20
2018-12-11T14:16:38.008Z,3.87
2018-12-11T14:19:06.610Z,5.93
2018-12-11T14:21:36.878Z,3.80
2018-12-11T14:24:05.196Z,3.63
2018-12-11T14:26:33.522Z,4.37
2018-12-11T14:29:01.828Z,4.10
2018-12-11T14:31:30.217Z,3.40
2018-12-11T14:33:58.545Z,4.30
2018-12-11T14:36:26.855Z,5.40
2018-12-11T14:38:56.236Z,4.30
2018-12-11T14:41:24.543Z,5.00
2018-12-11T14:43:52.863Z,4.10
2018-12-11T14:46:21.658Z,3.20
2018-12-11T14:48:49.966Z,3.67
2018-12-11T14:51:18.271Z,3.70
2018-12-11T14:53:46.596Z,6.83
2018-12-11T14:56:14.909Z,3.63
2018-12-11T14:58:44.232Z,5.53
2018-12-11T15:01:12.591Z,4.53
2018-12-11T15:03:41.739Z,4.93
2018-12-11T15:06:10.063Z,4.47
2018-12-11T15:08:38.644Z,3.47
2018-12-11T15:11:08.017Z,6.17
2018-12-11T15:13:36.299Z,3.17
2018-12-11T15:16:05.438Z,3.10
2018-12-11T15:18:33.760Z,3.07
2018-12-11T15:21:02.078Z,5.77
2018-12-11T15:23:30.980Z,4.90
2018-12-11T15:25:59.299Z,4.73
2018-12-11T15:28:27.592Z,4.17
2018-12-11T15:31:18.362Z,4.93
2018-12-11T15:33:46.740Z,4.97
2018-12-11T15:36:15.114Z,3.33
2018-12-11T15:38:43.479Z,2.67
2018-12-11T15:41:11.831Z,2.70
2018-12-11T15:43:40.116Z,4.57
2018-12-11T15:46:08.447Z,6.07
2018-12-11T15:48:38.055Z,3.17
2018-12-11T15:51:06.867Z,4.13
2018-12-11T15:53:37.227Z,3.80
2018-12-11T15:56:05.560Z,4.00
2018-12-11T15:58:34.027Z,3.13
2018-12-11T16:01:03.392Z,3.47
2018-12-11T16:03:32.719Z,3.27
2018-12-11T16:06:02.063Z,3.03
2018-12-11T16:08:30.347Z,5.07
2018-12-11T16:10:58.675Z,3.93
2018-12-11T16:13:26.995Z,6.67
2018-12-11T16:15:55.375Z,3.70
2018-12-11T16:18:23.717Z,3.17
2018-12-11T16:20:52.025Z,3.80
2018-12-11T16:23:20.356Z,3.23
2018-12-11T16:25:48.695Z,3.90
2018-12-11T16:28:17.029Z,2.87
2018-12-11T16:30:45.397Z,3.93
2018-12-11T16:33:13.711Z,3.03
2018-12-11T16:35:42.039Z,2.97
2018-12-11T16:38:11.360Z,2.53
2018-12-11T16:40:39.797Z,5.80
2018-12-11T16:43:08.146Z,2.70
2018-12-11T16:45:36.760Z,3.23
2018-12-11T16:48:05.110Z,4.00
2018-12-11T16:50:33.847Z,2.57
2018-12-11T16:53:02.192Z,3.50
2018-12-11T16:55:30.928Z,3.73
2018-12-11T16:57:59.700Z,3.10
2018-12-11T17:00:28.092Z,5.00
2018-12-11T17:02:56.430Z,2.07
2018-12-11T17:05:24.855Z,4.50
2018-12-11T17:07:53.181Z,2.47
2018-12-11T17:10:21.495Z,2.50
2018-12-11T17:12:49.851Z,4.07
2018-12-11T17:15:23.631Z,2.70
2018-12-11T17:17:52.255Z,3.37
2018-12-11T17:20:21.177Z,2.27
2018-12-11T17:22:49.451Z,3.23
2018-12-11T17:25:17.760Z,4.17
2018-12-11T17:27:46.148Z,3.30
2018-12-11T17:30:15.594Z,2.87
2018-12-11T17:32:43.915Z,4.17
2018-12-11T17:35:12.356Z,2.80
2018-12-11T17:37:40.695Z,2.90
2018-12-11T17:40:10.263Z,3.93
2018-12-11T17:42:38.608Z,2.10
2018-12-11T17:45:07.121Z,2.60
2018-12-11T17:47:36.449Z,3.33
2018-12-11T17:50:06.507Z,3.90
2018-12-11T17:52:34.818Z,4.67
2018-12-11T17:55:04.330Z,2.63
2018-12-11T17:57:32.691Z,2.50
2018-12-11T18:00:01.018Z,2.00
2018-12-11T18:02:33.899Z,1.90
2018-12-11T18:05:02.247Z,2.20
2018-12-11T18:07:31.615Z,2.83
2018-12-11T18:09:59.947Z,2.90
2018-12-11T18:12:28.681Z,2.37
2018-12-11T18:14:57.967Z,3.50
2018-12-11T18:17:26.446Z,3.90
2018-12-11T18:19:54.818Z,2.07
2018-12-11T18:22:23.455Z,3.30
2018-12-11T18:24:51.798Z,1.93
2018-12-11T18:27:20.135Z,3.10
2018-12-11T18:29:50.204Z,2.67
2018-12-11T18:32:24.901Z,8.40
2018-12-11T18:34:49.990Z,5.00
2018-12-11T18:37:18.343Z,3.97
2018-12-11T18:39:47.741Z,2.77
2018-12-11T18:42:16.053Z,3.43
2018-12-11T18:44:44.390Z,2.47
2018-12-11T18:47:12.781Z,3.10
2018-12-11T18:49:41.416Z,2.73
2018-12-11T18:52:10.400Z,3.00
2018-12-11T18:54:38.808Z,2.20
2018-12-11T18:57:08.167Z,2.60
2018-12-11T18:59:36.809Z,2.37
2018-12-11T19:02:05.799Z,3.20
2018-12-11T19:04:34.139Z,7.90
2018-12-11T19:07:02.449Z,3.47
2018-12-11T19:09:31.855Z,2.93
2018-12-11T19:12:00.182Z,3.53
2018-12-11T19:14:28.552Z,2.27
2018-12-11T19:16:57.317Z,2.10
2018-12-11T19:19:25.678Z,3.00
2018-12-11T19:21:55.496Z,2.60
2018-12-11T19:24:38.456Z,12.13
2018-12-11T19:27:06.743Z,18.90
2018-12-11T19:29:35.613Z,34.63
2018-12-11T19:32:04.113Z,16.60
2018-12-11T19:34:34.252Z,33.33
2018-12-11T19:37:03.564Z,39.57
2018-12-11T19:39:33.331Z,48.10
2018-12-11T19:42:01.917Z,45.10
2018-12-11T19:44:31.596Z,39.47
2018-12-11T19:47:01.744Z,49.73
2018-12-11T19:49:30.194Z,31.63
2018-12-11T19:51:58.501Z,37.20
2018-12-11T19:54:26.856Z,35.20
2018-12-11T19:56:55.210Z,56.53
2018-12-11T19:59:23.567Z,29.03
2018-12-11T20:01:52.004Z,24.33
2018-12-11T20:04:21.907Z,31.50
2018-12-11T20:06:50.612Z,26.30
2018-12-11T20:09:19.032Z,25.13
2018-12-11T20:11:47.800Z,29.20
2018-12-11T20:14:17.200Z,21.53
2018-12-11T20:16:45.516Z,17.93
2018-12-11T20:19:16.163Z,24.43
2018-12-11T20:21:44.556Z,62.20
2018-12-11T20:24:12.888Z,24.13
2018-12-11T20:26:41.466Z,24.50
2018-12-11T20:29:09.933Z,17.10
2018-12-11T20:31:38.342Z,26.73
2018-12-11T20:34:06.681Z,17.23
2018-12-11T20:36:35.405Z,14.60
2018-12-11T20:39:07.032Z,23.50
2018-12-11T20:41:35.385Z,21.63
2018-12-11T20:44:03.943Z,18.70
2018-12-11T20:46:33.445Z,12.47
2018-12-11T20:49:03.052Z,15.80
2018-12-11T20:51:31.383Z,11.13
2018-12-11T20:54:00.210Z,10.37
2018-12-11T20:56:28.555Z,21.57
2018-12-11T20:58:56.870Z,13.10
2018-12-11T21:01:25.227Z,15.23
2018-12-11T21:03:53.552Z,9.50
2018-12-11T21:06:21.881Z,10.20
2018-12-11T21:08:50.691Z,12.57
2018-12-11T21:11:19.127Z,11.93
2018-12-11T21:13:47.416Z,11.23
2018-12-11T21:16:15.703Z,11.57
2018-12-11T21:18:44.358Z,10.67
2018-12-11T21:21:12.762Z,7.00
2018-12-11T21:23:42.017Z,12.97
2018-12-11T21:26:10.323Z,9.10
2018-12-11T21:28:38.819Z,9.93
2018-12-11T21:31:07.223Z,10.73
2018-12-11T21:33:35.602Z,16.90
2018-12-11T21:36:04.125Z,9.97
2018-12-11T21:38:32.900Z,9.70
2018-12-11T21:41:01.343Z,15.33
2018-12-11T21:43:30.174Z,10.03
2018-12-11T21:45:58.592Z,7.10
2018-12-11T21:48:27.248Z,11.20
2018-12-11T21:50:56.066Z,13.17
2018-12-11T21:53:24.934Z,9.13
2018-12-11T21:55:55.013Z,9.50
2018-12-11T21:58:25.683Z,13.50
2018-12-11T22:00:56.266Z,18.80
2018-12-11T22:03:26.823Z,6.97
2018-12-11T22:05:56.448Z,10.63
2018-12-11T22:08:25.566Z,10.00
2018-12-11T22:10:54.311Z,6.23
2018-12-11T22:13:23.704Z,7.20
2018-12-11T22:15:53.143Z,5.60
2018-12-11T22:18:22.855Z,4.50
2018-12-11T22:20:51.900Z,8.33
2018-12-11T22:23:20.222Z,6.83
2018-12-11T22:25:48.493Z,15.53
2018-12-11T22:28:17.831Z,8.53
2018-12-11T22:30:46.367Z,4.63
2018-12-11T22:33:14.719Z,6.97
2018-12-11T22:35:43.675Z,6.30
2018-12-11T22:38:13.066Z,6.57
2018-12-11T22:40:41.438Z,10.50
2018-12-11T22:43:10.547Z,6.70
2018-12-11T22:45:38.907Z,5.80
2018-12-11T22:48:07.219Z,8.30
2018-12-11T22:50:35.589Z,7.23
2018-12-11T22:53:03.899Z,6.57
2018-12-11T22:55:33.806Z,13.87
2018-12-11T22:58:03.199Z,4.47
2018-12-11T23:00:31.516Z,6.27
2018-12-11T23:02:59.820Z,7.97
2018-12-11T23:05:28.103Z,6.73
2018-12-11T23:07:56.443Z,6.00
2018-12-11T23:10:25.275Z,8.10
2018-12-11T23:12:53.622Z,5.13
2018-12-11T23:15:21.948Z,6.67
2018-12-11T23:17:50.298Z,6.60
2018-12-11T23:20:19.621Z,6.57
2018-12-11T23:22:47.943Z,5.63
2018-12-11T23:25:16.352Z,6.83
2018-12-11T23:27:44.674Z,5.60
2018-12-11T23:30:13.083Z,4.10
2018-12-11T23:32:42.429Z,3.37
2018-12-11T23:35:11.151Z,2.93
2018-12-11T23:37:39.519Z,3.40
2018-12-11T23:40:07.886Z,4.47
2018-12-11T23:42:36.196Z,8.47
2018-12-11T23:45:06.077Z,6.20
2018-12-11T23:47:34.408Z,5.70
2018-12-11T23:50:03.701Z,2.80
2018-12-11T23:52:32.111Z,4.80
2018-12-11T23:55:00.453Z,5.60
2018-12-11T23:57:29.821Z,4.83
2018-12-11T23:59:58.206Z,5.10
